Terminal Aerodrome Forecast
Issued by NWS Pittsburgh, PA

Current Version | Previous Version | Graphics & Text | Print | Product List | Glossary On
Versions: 1 2 3 4 5 6 7 8 9 10 11 12 13 14 15 16 17 18 19 20 21 22 23 24 25 26 27 28 29 30 31
000
FTUS41 KPBZ 300314 AAA
TAFPIT
TAF AMD
KPIT 300314Z 3003/0106 12006KT P6SM -SHRA BKN040
     FM300600 16005KT P6SM BKN040
     FM300800 17004KT P6SM BKN015
     FM301400 21010KT P6SM BKN025
     FM302000 22010G18KT P6SM VCTS BKN035CB=

USA.gov is the U.S. government's official web portal to all federal, state and local government web resources and services.